Wudaoliang, China
Current Conditions -  °F | °C
As of 6:20 PM on Wednesday 28 Jan 2015 (Local Time) from VQPR Reporting Station
Clear Clear  
Wind Chill: 55°   Ceiling: Unl
Heat Index: 55°   Visibility: 6mi
Dew Point: 16°   Wind: 18mph
Humidity: 21%   Direction: 130°SE
Pressure: 29.94"   Gusts: NA
Location:  35.22°N, 93.08°E
Report Text: VQPR 281020Z 13016KT 9999 SKC 13/M09 Q1014 NOSIG
Loading
Personal Weather Stations






























Interactive Weather Map New forecast layout! Learn more

10-Day Weather Forecast

Advertisements
Track Severe Weather on mobile